Time;durP1;ratioP1;P1;durP2;ratioP2;P2;SDS_P1;SDS_P2;PMS_P1;PMS_P2;Temp;Humidity;BMP_temperature;BMP_pressure;BME280_temperature;BME280_humidity;BME280_pressure;Samples;Min_cycle;Max_cycle;Signal;HPM_P1;HPM_P2
2023/04/20 03:44:24;;;;;;;;;5.00;5.00;;;;;11.54;42.47;101149.84;4926946;22;45346;-79
2023/04/20 03:46:49;;;;;;;;;6.00;6.00;;;;;11.61;42.45;101152.31;4983967;28;45434;-79
2023/04/20 03:49:15;;;;;;;;;3.00;3.00;;;;;11.61;42.76;101149.63;4985987;28;45427;-79
2023/04/20 03:51:40;;;;;;;;;5.50;4.75;;;;;11.63;42.77;101155.78;4983942;28;45399;-79
2023/04/20 03:54:05;;;;;;;;;5.75;5.00;;;;;11.68;42.35;101161.88;4984676;28;48335;-79
2023/04/20 03:56:31;;;;;;;;;3.50;3.50;;;;;11.74;42.29;101176.84;4970935;28;45270;-79
2023/04/20 03:58:56;;;;;;;;;5.00;5.00;;;;;11.61;42.08;101159.44;4969379;28;45166;-79
2023/04/20 04:01:21;;;;;;;;;6.00;5.00;;;;;11.45;42.30;101142.97;4971560;28;47439;-79
2023/04/20 04:03:47;;;;;;;;;9.50;5.75;;;;;11.62;42.44;101179.91;4966090;28;45203;-79
2023/04/20 04:06:12;;;;;;;;;4.00;3.00;;;;;11.61;42.69;101176.38;4985531;28;45419;-79
2023/04/20 04:08:37;;;;;;;;;3.25;3.25;;;;;11.51;42.57;101161.53;4968300;28;50435;-79
2023/04/20 04:11:03;;;;;;;;;6.25;5.00;;;;;11.59;42.46;101177.31;4985399;28;45299;-79
2023/04/20 04:13:28;;;;;;;;;6.50;4.50;;;;;11.46;42.21;101167.00;4984757;28;45193;-79
2023/04/20 04:15:53;;;;;;;;;3.00;3.00;;;;;11.32;42.62;101153.16;4986200;28;45265;-79
2023/04/20 04:18:20;;;;;;;;;4.00;4.00;;;;;11.60;42.62;101201.34;4986238;28;45225;-79
2023/04/20 04:20:45;;;;;;;;;5.25;5.00;;;;;11.42;42.43;101165.31;4981813;28;45321;-79
2023/04/20 04:23:11;;;;;;;;;6.75;5.00;;;;;11.48;42.54;101191.00;4975064;28;45307;-79
2023/04/20 04:25:39;;;;;;;;;5.50;5.50;;;;;11.47;42.72;101187.44;4985006;28;45476;-79
2023/04/20 04:28:04;;;;;;;;;4.50;4.50;;;;;11.31;43.12;101162.09;4984494;28;44734;-79
2023/04/20 04:30:30;;;;;;;;;6.50;5.75;;;;;11.42;42.63;101191.19;4983918;28;45575;-79
2023/04/20 04:32:55;;;;;;;;;5.00;3.75;;;;;11.45;42.18;101204.47;4966333;28;45269;-79
2023/04/20 04:35:20;;;;;;;;;7.00;5.50;;;;;11.40;42.71;101201.91;4985593;28;45273;-79
2023/04/20 04:37:46;;;;;;;;;8.50;5.50;;;;;11.31;42.07;101187.03;4977811;28;45224;-79
2023/04/20 04:40:11;;;;;;;;;5.00;5.00;;;;;11.37;42.68;101198.47;4978563;28;47236;-79
2023/04/20 04:42:37;;;;;;;;;4.00;4.00;;;;;11.30;42.21;101203.97;4983805;28;45477;-79
2023/04/20 04:45:03;;;;;;;;;5.75;5.00;;;;;11.21;41.91;101201.56;4992612;28;45561;-79
2023/04/20 04:47:33;;;;;;;;;5.75;5.00;;;;;10.99;42.00;101176.34;4984534;28;45581;-79
2023/04/20 04:49:59;;;;;;;;;8.25;6.25;;;;;10.88;42.21;101185.53;4984439;28;46140;-79
2023/04/20 04:52:26;;;;;;;;;6.25;5.75;;;;;10.99;42.68;101213.75;4973044;28;45522;-79
2023/04/20 04:54:51;;;;;;;;;8.00;6.25;;;;;10.90;42.75;101214.88;4982679;28;45231;-79
2023/04/20 04:57:17;;;;;;;;;9.00;8.00;;;;;10.88;42.57;101219.38;4985271;28;45584;-79
2023/04/20 04:59:42;;;;;;;;;8.50;5.00;;;;;10.90;42.36;101230.91;4984499;28;46162;-79
2023/04/20 05:02:07;;;;;;;;;3.50;3.50;;;;;10.85;42.91;101230.13;4984820;28;45492;-79
2023/04/20 05:04:33;;;;;;;;;7.25;4.00;;;;;10.82;42.60;101227.53;4984085;28;45243;-79
2023/04/20 05:06:58;;;;;;;;;9.00;7.00;;;;;10.74;42.45;101219.72;4967416;28;50208;-79
2023/04/20 05:09:23;;;;;;;;;9.00;7.75;;;;;10.77;43.02;101226.78;4985285;28;45378;-79
2023/04/20 05:11:48;;;;;;;;;8.00;6.00;;;;;10.80;42.77;101219.56;4984933;28;45268;-79
2023/04/20 05:14:14;;;;;;;;;7.00;7.00;;;;;10.84;42.60;101223.03;4983638;28;47571;-79
2023/04/20 05:16:39;;;;;;;;;8.75;5.75;;;;;10.79;42.90;101224.94;4985075;28;45255;-79
2023/04/20 05:19:04;;;;;;;;;6.25;6.25;;;;;10.63;41.80;101195.97;4968116;28;47222;-79
2023/04/20 05:21:31;;;;;;;;;4.50;4.50;;;;;10.72;42.58;101222.41;4983100;28;45454;-79
2023/04/20 05:23:56;;;;;;;;;7.75;6.25;;;;;10.59;42.33;101220.09;4981948;28;45322;-79
2023/04/20 05:26:22;;;;;;;;;4.50;4.00;;;;;10.69;42.22;101243.88;4977844;28;45371;-79
2023/04/20 05:28:47;;;;;;;;;8.50;6.25;;;;;10.54;42.34;101225.56;4967394;28;57897;-79
2023/04/20 05:31:12;;;;;;;;;7.00;7.00;;;;;10.61;42.54;101236.94;4982580;28;46713;-79
2023/04/20 05:33:38;;;;;;;;;9.00;7.00;;;;;10.50;42.07;101232.75;4983372;28;45340;-79
2023/04/20 05:36:07;;;;;;;;;2.75;2.75;;;;;10.50;42.54;101251.44;4983418;28;45375;-78
2023/04/20 05:38:33;;;;;;;;;4.50;4.50;;;;;10.43;42.21;101244.50;4966006;28;47907;-80
2023/04/20 05:40:58;;;;;;;;;8.00;7.00;;;;;10.43;42.58;101251.66;4985000;28;45202;-79
2023/04/20 05:43:23;;;;;;;;;7.75;7.00;;;;;10.26;42.47;101239.53;4984133;28;45332;-79
2023/04/20 05:45:49;;;;;;;;;7.75;7.00;;;;;10.32;42.89;101252.78;4967782;28;45870;-78
2023/04/20 05:48:15;;;;;;;;;7.50;5.25;;;;;10.16;42.63;101230.00;4986042;28;45086;-78
2023/04/20 05:50:40;;;;;;;;;8.75;8.25;;;;;10.23;42.95;101233.41;4985078;28;45786;-78
2023/04/20 05:53:06;;;;;;;;;9.50;6.75;;;;;10.35;42.69;101255.34;4993891;28;45418;-78
2023/04/20 05:55:31;;;;;;;;;6.00;4.50;;;;;10.26;42.48;101236.88;4986100;28;47382;-78
2023/04/20 05:57:56;;;;;;;;;5.50;5.50;;;;;10.29;42.61;101233.22;4968533;28;61716;-78
2023/04/20 06:00:23;;;;;;;;;8.50;8.00;;;;;10.25;43.27;101229.75;4984596;28;46246;-78
2023/04/20 06:02:48;;;;;;;;;7.25;6.75;;;;;10.34;42.91;101247.38;4978923;28;45373;-79
2023/04/20 06:05:13;;;;;;;;;5.00;5.00;;;;;10.18;43.17;101225.50;4982382;28;45557;-82
2023/04/20 06:07:39;;;;;;;;;7.25;7.00;;;;;10.37;42.73;101250.88;4982259;28;45568;-82
2023/04/20 06:10:05;;;;;;;;;9.50;8.50;;;;;10.16;42.28;101224.66;4984025;28;45254;-82
2023/04/20 06:12:31;;;;;;;;;8.00;8.00;;;;;10.31;43.16;101244.78;4982400;28;45469;-82
2023/04/20 06:14:57;;;;;;;;;10.00;6.00;;;;;10.30;42.98;101254.53;4966046;28;45341;-82
2023/04/20 06:17:23;;;;;;;;;7.50;7.50;;;;;10.10;42.88;101216.78;4983140;28;46483;-82
2023/04/20 06:19:48;;;;;;;;;8.00;8.00;;;;;10.22;42.82;101235.16;4983623;28;45280;-82
2023/04/20 06:22:15;;;;;;;;;11.25;7.50;;;;;10.22;42.82;101240.50;4981727;28;45332;-82
2023/04/20 06:24:41;;;;;;;;;9.25;8.25;;;;;10.29;42.68;101249.25;4983493;28;45421;-82
2023/04/20 06:27:09;;;;;;;;;10.25;9.75;;;;;10.34;43.05;101248.28;4982652;28;47544;-82
2023/04/20 06:29:35;;;;;;;;;5.50;5.50;;;;;10.35;42.65;101246.47;4984057;28;45616;-82
2023/04/20 06:32:00;;;;;;;;;9.75;8.00;;;;;10.34;42.92;101250.94;4971051;28;45349;-82
2023/04/20 06:34:26;;;;;;;;;10.00;10.00;;;;;10.31;42.58;101242.09;4982288;28;45257;-84
2023/04/20 06:36:51;;;;;;;;;12.25;9.25;;;;;10.38;43.13;101244.59;4981336;28;45381;-83
2023/04/20 06:39:17;;;;;;;;;9.00;8.25;;;;;10.39;42.45;101256.19;4981590;28;45541;-83
2023/04/20 06:41:42;;;;;;;;;10.00;9.00;;;;;10.35;43.00;101238.47;4978962;28;45622;-82
2023/04/20 06:44:08;;;;;;;;;8.00;8.00;;;;;10.38;42.59;101239.28;4983425;28;45312;-82
2023/04/20 06:46:33;;;;;;;;;5.00;5.00;;;;;10.54;42.75;101257.59;4982780;28;45451;-83
2023/04/20 06:48:59;;;;;;;;;10.75;9.00;;;;;10.35;42.86;101226.00;4965344;28;45333;-83
2023/04/20 06:51:25;;;;;;;;;11.00;9.50;;;;;10.38;42.76;101233.94;4964129;28;45238;-83
2023/04/20 06:53:51;;;;;;;;;10.75;9.00;;;;;10.43;42.46;101232.97;4965611;28;46452;-80
2023/04/20 06:56:16;;;;;;;;;11.25;10.50;;;;;10.38;42.83;101220.59;4974459;28;45489;-81
2023/04/20 06:58:41;;;;;;;;;8.75;8.00;;;;;10.49;42.77;101240.81;4961085;28;47509;-79
2023/04/20 07:01:07;;;;;;;;;9.25;8.00;;;;;10.57;42.52;101246.84;4973598;28;45357;-80
2023/04/20 07:03:32;;;;;;;;;9.75;9.50;;;;;10.60;42.69;101246.75;4977863;28;46407;-80
2023/04/20 07:05:58;;;;;;;;;8.75;8.50;;;;;10.63;42.75;101252.03;4980131;28;46225;-80
2023/04/20 07:08:23;;;;;;;;;11.50;9.75;;;;;10.64;42.09;101250.22;4977269;28;45339;-80
2023/04/20 07:10:48;;;;;;;;;9.50;9.25;;;;;10.64;42.26;101245.78;4979234;28;45331;-80
2023/04/20 07:13:14;;;;;;;;;10.00;9.00;;;;;10.65;42.21;101246.66;4964669;28;45312;-80
2023/04/20 07:15:39;;;;;;;;;11.75;10.50;;;;;10.64;42.05;101248.47;4977400;28;45415;-80
2023/04/20 07:18:05;;;;;;;;;10.25;8.75;;;;;10.73;42.39;101248.22;4976467;28;46892;-79
2023/04/20 07:20:30;;;;;;;;;8.25;5.00;;;;;10.69;42.30;101238.53;4978178;28;45289;-79
2023/04/20 07:22:55;;;;;;;;;9.50;9.00;;;;;10.64;42.72;101218.19;4971032;28;45258;-79
2023/04/20 07:25:22;;;;;;;;;8.00;7.75;;;;;10.73;42.73;101224.19;4975986;28;46950;-80
2023/04/20 07:27:47;;;;;;;;;13.00;10.25;;;;;10.79;42.33;101227.63;4953565;28;45818;-80
2023/04/20 07:30:13;;;;;;;;;11.50;10.75;;;;;10.99;42.47;101246.66;4978949;28;45437;-80
2023/04/20 07:32:40;;;;;;;;;10.00;7.50;;;;;10.79;42.60;101196.44;4962015;28;45503;-80
2023/04/20 07:35:06;;;;;;;;;12.50;10.75;;;;;11.05;43.09;101235.81;4968694;28;47719;-80
2023/04/20 07:37:32;;;;;;;;;12.25;9.75;;;;;11.12;43.11;101229.38;4973888;28;45496;-80
2023/04/20 07:39:57;;;;;;;;;9.00;9.00;;;;;11.16;42.79;101213.28;4977542;28;45380;-80
2023/04/20 07:42:22;;;;;;;;;11.00;9.00;;;;;11.32;42.48;101227.97;4974662;28;45300;-80
2023/04/20 07:44:48;;;;;;;;;10.75;9.00;;;;;11.38;42.44;101229.63;4960509;28;59486;-80
2023/04/20 07:47:13;;;;;;;;;10.25;10.00;;;;;11.43;42.61;101236.59;4970316;28;45430;-80
2023/04/20 07:49:39;;;;;;;;;10.00;9.50;;;;;11.51;42.81;101241.72;4955291;28;45597;-80
2023/04/20 07:52:06;;;;;;;;;10.25;8.00;;;;;11.55;42.64;101223.81;4978061;28;45238;-80
2023/04/20 07:54:31;;;;;;;;;11.25;10.25;;;;;11.66;42.81;101229.69;4982420;28;46057;-80
2023/04/20 07:56:57;;;;;;;;;12.50;10.00;;;;;11.74;42.62;101234.81;4958255;28;45359;-80
2023/04/20 07:59:22;;;;;;;;;14.25;11.75;;;;;11.77;42.21;101227.59;4980539;28;45363;-80
2023/04/20 08:01:48;;;;;;;;;13.75;13.25;;;;;11.79;42.49;101216.84;4974580;28;45595;-80
2023/04/20 08:04:13;;;;;;;;;13.25;10.00;;;;;11.92;42.28;101228.97;4981041;28;51803;-80
2023/04/20 08:06:38;;;;;;;;;6.00;6.00;;;;;11.85;41.70;101206.84;4972583;28;47938;-80
2023/04/20 08:09:04;;;;;;;;;11.00;9.25;;;;;11.98;41.91;101223.44;4979310;28;45276;-80
2023/04/20 08:11:29;;;;;;;;;10.25;10.25;;;;;12.02;42.24;101226.88;4976809;28;44924;-80
2023/04/20 08:13:54;;;;;;;;;13.00;12.00;;;;;12.08;42.41;101224.03;4976534;28;45416;-80
2023/04/20 08:16:20;;;;;;;;;11.25;10.50;;;;;12.01;42.00;101201.03;4977999;28;45510;-80
2023/04/20 08:18:45;;;;;;;;;12.25;12.25;;;;;12.05;41.77;101197.34;4971315;28;45396;-80
2023/04/20 08:21:10;;;;;;;;;11.00;11.00;;;;;12.23;42.16;101220.88;4976928;28;45463;-79
2023/04/20 08:23:36;;;;;;;;;11.50;10.50;;;;;12.29;41.80;101218.91;4979958;28;45604;-79
2023/04/20 08:26:03;;;;;;;;;14.00;11.25;;;;;12.32;41.85;101202.75;4982164;28;49730;-79
2023/04/20 08:28:28;;;;;;;;;16.25;13.25;;;;;12.29;41.43;101193.00;4981603;28;45352;-79
2023/04/20 08:30:53;;;;;;;;;11.50;11.25;;;;;12.31;41.65;101196.53;4977913;28;45722;-79
2023/04/20 08:33:19;;;;;;;;;13.75;11.75;;;;;12.35;41.71;101186.59;4983954;28;46036;-79
2023/04/20 08:35:45;;;;;;;;;13.75;13.25;;;;;12.39;41.52;101191.78;4964203;28;45266;-79
2023/04/20 08:38:10;;;;;;;;;15.00;11.50;;;;;12.44;41.71;101185.41;4969808;28;45346;-79
2023/04/20 08:40:36;;;;;;;;;14.25;12.75;;;;;12.48;41.46;101187.94;4970627;28;45658;-79
2023/04/20 08:43:02;;;;;;;;;7.25;5.25;;;;;12.57;41.39;101202.84;4978397;28;45331;-80
2023/04/20 08:45:29;;;;;;;;;14.75;12.50;;;;;12.43;41.64;101181.88;4980556;28;45524;-80
2023/04/20 08:47:55;;;;;;;;;15.25;13.50;;;;;12.51;41.68;101176.25;4954103;28;45452;-80
2023/04/20 08:50:21;;;;;;;;;15.25;14.00;;;;;12.56;41.35;101183.22;4973378;28;45506;-80
2023/04/20 08:52:46;;;;;;;;;12.50;10.75;;;;;12.75;41.49;101207.56;4982649;28;45589;-80
2023/04/20 08:55:18;;;;;;;;;12.00;11.25;;;;;12.63;41.15;101169.59;4981172;28;46062;-80
2023/04/20 08:57:46;;;;;;;;;12.50;12.50;;;;;12.79;40.86;101186.91;4979053;28;45540;-80
2023/04/20 09:00:12;;;;;;;;;11.75;11.00;;;;;12.87;40.65;101200.03;4962956;28;45602;-80
2023/04/20 09:02:48;;;;;;;;;15.25;14.25;;;;;12.82;40.33;101184.13;4963582;28;48421;-80
2023/04/20 09:05:13;;;;;;;;;12.00;10.00;;;;;12.86;40.36;101193.78;4977722;28;45573;-80
2023/04/20 09:07:38;;;;;;;;;13.75;12.75;;;;;12.75;40.60;101156.66;4980781;28;45452;-80
2023/04/20 09:10:04;;;;;;;;;13.25;12.25;;;;;12.87;40.07;101174.13;4968182;28;45420;-80
2023/04/20 09:12:40;;;;;;;;;7.00;6.75;;;;;12.99;39.97;101183.53;4961130;28;47297;-80
2023/04/20 09:15:06;;;;;;;;;14.50;13.25;;;;;12.90;39.85;101155.25;4973631;28;45584;-80
2023/04/20 09:17:33;;;;;;;;;13.25;13.00;;;;;13.02;39.27;101163.78;4975042;28;45432;-80
2023/04/20 09:19:59;;;;;;;;;15.00;13.25;;;;;13.04;39.35;101164.59;4969019;28;45281;-80
2023/04/20 09:22:29;;;;;;;;;15.75;12.75;;;;;13.08;39.62;101163.56;4962897;28;47030;-79
2023/04/20 09:24:55;;;;;;;;;12.00;12.00;;;;;13.13;39.26;101156.22;4964129;28;45030;-80
2023/04/20 09:27:22;;;;;;;;;14.00;14.00;;;;;13.06;38.80;101146.66;4958905;28;45373;-80
2023/04/20 09:30:02;;;;;;;;;16.75;14.50;;;;;12.91;38.97;101122.19;4965519;28;45498;-80
2023/04/20 09:32:28;;;;;;;;;13.00;13.00;;;;;13.12;39.40;101154.50;4981982;28;45532;-80
2023/04/20 09:34:55;;;;;;;;;18.00;15.00;;;;;13.20;39.10;101154.19;4962726;28;45607;-80
2023/04/20 09:37:21;;;;;;;;;8.75;8.75;;;;;13.09;39.20;101122.44;4982291;28;45336;-80
2023/04/20 09:39:47;;;;;;;;;11.00;8.25;;;;;13.28;38.06;101144.06;4981252;28;45356;-80
2023/04/20 09:42:15;;;;;;;;;13.25;12.00;;;;;13.23;38.82;101130.84;4982050;28;45654;-88
2023/04/20 09:44:41;;;;;;;;;13.00;10.00;;;;;13.28;38.76;101139.59;4982592;28;45446;-88
2023/04/20 09:47:08;;;;;;;;;11.00;8.00;;;;;13.07;38.58;101105.53;4982748;28;45328;-88
2023/04/20 09:49:35;;;;;;;;;15.50;10.25;;;;;13.14;38.63;101088.28;4982339;28;45457;-88
2023/04/20 09:52:02;;;;;;;;;12.25;11.75;;;;;13.36;38.95;101125.03;4965211;28;47388;-88
2023/04/20 09:54:28;;;;;;;;;13.50;10.50;;;;;13.42;38.45;101108.72;4982202;28;45765;-88
2023/04/20 09:56:53;;;;;;;;;12.50;9.75;;;;;13.45;38.98;101103.25;4974933;28;45206;-87
2023/04/20 09:59:20;;;;;;;;;9.00;9.00;;;;;13.37;38.72;101081.22;4982771;28;45196;-88
2023/04/20 10:01:46;;;;;;;;;9.50;9.25;;;;;13.48;38.52;101090.59;4965207;28;47346;-88
2023/04/20 10:04:12;;;;;;;;;9.00;8.00;;;;;13.59;38.74;101111.63;4971476;28;45403;-86
2023/04/20 10:06:39;;;;;;;;;7.75;7.75;;;;;13.64;38.69;101104.28;4973382;28;45485;-89
2023/04/20 10:09:07;;;;;;;;;8.00;8.00;;;;;13.58;39.14;101079.50;4969055;28;46044;-89
2023/04/20 10:11:41;;;;;;;;;14.25;9.25;;;;;13.78;39.09;101102.84;4981149;28;45337;-89
2023/04/20 10:14:17;;;;;;;;;12.00;11.50;;;;;13.64;38.67;101068.53;4982447;28;45426;-88
2023/04/20 10:16:57;;;;;;;;;13.25;10.50;;;;;13.82;38.79;101104.50;4957924;28;45374;-89
2023/04/20 10:19:23;;;;;;;;;9.75;9.75;;;;;13.69;38.98;101078.13;4966300;28;45528;-89
2023/04/20 10:21:49;;;;;;;;;12.75;12.75;;;;;13.81;38.77;101100.03;4974248;28;46034;-89
2023/04/20 10:24:27;;;;;;;;;10.00;10.00;;;;;13.73;38.80;101084.25;4973280;28;45611;-88
2023/04/20 10:26:53;;;;;;;;;11.25;10.00;;;;;13.84;39.20;101094.56;4978951;28;45289;-86
2023/04/20 10:29:26;;;;;;;;;13.75;11.25;;;;;13.73;38.94;101067.28;4967382;28;45640;-88
2023/04/20 10:31:52;;;;;;;;;12.00;10.00;;;;;13.88;38.94;101099.75;4964402;28;47189;-89
2023/04/20 10:34:29;;;;;;;;;7.75;7.00;;;;;13.86;39.17;101090.00;4961448;28;45666;-89
2023/04/20 10:36:55;;;;;;;;;11.25;10.25;;;;;13.82;39.32;101099.13;4982188;28;45278;-89
2023/04/20 10:39:21;;;;;;;;;15.00;15.00;;;;;13.80;38.86;101085.75;4983154;28;45490;-89
2023/04/20 10:42:02;;;;;;;;;11.50;11.25;;;;;13.73;39.26;101052.06;4963334;28;47926;-89
2023/04/20 10:44:29;;;;;;;;;10.75;10.75;;;;;13.80;39.51;101071.44;4973993;28;45362;-90
2023/04/20 10:46:55;;;;;;;;;11.25;11.25;;;;;13.71;39.27;101057.50;4975495;28;45418;-89
2023/04/20 10:49:25;;;;;;;;;16.50;13.50;;;;;13.73;38.92;101053.88;4962225;28;45800;-89
2023/04/20 10:51:52;;;;;;;;;10.00;8.50;;;;;13.70;39.33;101050.38;4978653;28;46398;-90
2023/04/20 10:54:18;;;;;;;;;13.50;11.50;;;;;13.82;39.63;101085.72;4964135;28;45586;-89
2023/04/20 10:56:48;;;;;;;;;15.00;14.00;;;;;13.80;39.35;101071.44;4981620;28;45484;-89
2023/04/20 10:59:16;;;;;;;;;15.50;12.75;;;;;13.74;39.09;101077.97;4978264;28;45612;-90
2023/04/20 11:01:43;;;;;;;;;15.00;14.00;;;;;13.61;39.67;101049.88;4980439;28;46638;-90
2023/04/20 11:04:09;;;;;;;;;13.50;13.00;;;;;13.75;39.94;101071.66;4972855;28;45292;-90
2023/04/20 11:06:38;;;;;;;;;11.00;11.00;;;;;13.70;39.74;101069.16;4980975;28;45453;-89
2023/04/20 11:09:15;;;;;;;;;12.25;12.25;;;;;13.52;40.25;101041.25;4981240;28;45325;-89
2023/04/20 11:11:40;;;;;;;;;15.75;15.75;;;;;13.51;40.00;101044.00;4979208;28;47132;-89
2023/04/20 11:14:07;;;;;;;;;13.50;13.50;;;;;13.55;40.14;101058.16;4978764;28;45331;-89
2023/04/20 11:16:34;;;;;;;;;11.75;11.75;;;;;13.58;39.99;101066.97;4962112;28;45312;-89
2023/04/20 11:19:00;;;;;;;;;14.00;13.00;;;;;13.47;40.23;101048.63;4964763;28;45473;-90
2023/04/20 11:21:37;;;;;;;;;15.50;13.50;;;;;13.53;40.32;101061.78;4981119;28;45470;-89
2023/04/20 11:24:03;;;;;;;;;13.50;12.00;;;;;13.41;40.08;101042.63;4982886;28;45623;-89
2023/04/20 11:26:42;;;;;;;;;14.75;14.75;;;;;13.42;40.14;101042.56;4967515;28;45336;-89
2023/04/20 11:29:08;;;;;;;;;17.75;15.00;;;;;13.40;40.04;101054.25;4973372;28;45261;-89
2023/04/20 11:31:33;;;;;;;;;17.00;15.75;;;;;13.26;40.01;101028.84;4981343;28;47470;-89
2023/04/20 11:33:59;;;;;;;;;12.75;12.75;;;;;13.38;40.75;101048.09;4983313;28;45375;-89
2023/04/20 11:36:27;;;;;;;;;18.50;14.50;;;;;13.22;40.38;101026.34;4978099;28;45627;-81
2023/04/20 11:38:53;;;;;;;;;14.25;12.25;;;;;13.19;40.41;101026.47;4966258;28;45707;-90
2023/04/20 11:41:18;;;;;;;;;17.00;13.25;;;;;13.30;40.33;101049.25;4981980;28;46321;-88
2023/04/20 11:43:44;;;;;;;;;15.75;14.00;;;;;13.21;40.03;101038.88;4983783;28;44830;-87
2023/04/20 11:46:16;;;;;;;;;15.00;13.75;;;;;13.04;40.41;101026.13;4965215;28;45438;-88
2023/04/20 11:48:42;;;;;;;;;13.25;12.50;;;;;13.11;40.73;101038.38;4983683;28;45304;-88
2023/04/20 11:51:08;;;;;;;;;14.50;14.25;;;;;13.03;40.95;101010.09;4979748;28;46128;-88
2023/04/20 11:53:33;;;;;;;;;10.25;8.00;;;;;13.10;40.82;101031.25;4983336;28;46116;-88
2023/04/20 11:55:59;;;;;;;;;13.50;13.50;;;;;13.20;41.13;101047.84;4984695;28;45523;-82
2023/04/20 11:58:24;;;;;;;;;17.25;13.50;;;;;13.18;40.88;101035.44;4966340;28;45452;-86
2023/04/20 12:00:49;;;;;;;;;15.00;14.25;;;;;13.15;40.59;101023.03;4975857;28;47388;-87
2023/04/20 12:03:15;;;;;;;;;16.50;15.00;;;;;13.17;40.80;101021.16;4969080;28;45759;-88
2023/04/20 12:05:42;;;;;;;;;15.00;14.25;;;;;13.18;40.79;101022.94;4982218;28;45331;-87
2023/04/20 12:08:07;;;;;;;;;15.00;14.00;;;;;13.19;40.83;101031.84;4965115;28;45821;-87
2023/04/20 12:10:33;;;;;;;;;14.00;13.75;;;;;13.11;41.31;101024.06;4959466;28;48352;-88
2023/04/20 12:12:59;;;;;;;;;12.75;12.75;;;;;13.03;41.38;100994.00;4967168;28;45969;-89
2023/04/20 12:15:25;;;;;;;;;14.00;14.00;;;;;13.18;41.15;101024.72;4961256;28;45504;-88
2023/04/20 12:17:51;;;;;;;;;14.00;13.00;;;;;12.94;41.23;101001.47;4953357;28;45861;-88
2023/04/20 12:20:16;;;;;;;;;15.00;15.00;;;;;13.07;41.49;101009.06;4984642;28;45983;-88
2023/04/20 12:22:41;;;;;;;;;13.00;13.00;;;;;13.00;41.94;100995.03;4973294;28;45332;-88
2023/04/20 12:25:07;;;;;;;;;15.00;13.75;;;;;12.98;41.45;100984.38;4982153;28;46241;-88
2023/04/20 12:27:32;;;;;;;;;15.00;13.25;;;;;13.16;41.81;101006.00;4984255;28;45336;-89
2023/04/20 12:29:58;;;;;;;;;22.50;18.00;;;;;13.12;41.78;100999.03;4978431;28;45726;-88
2023/04/20 12:32:23;;;;;;;;;18.25;16.25;;;;;13.09;41.89;100988.44;4982437;28;45498;-88
2023/04/20 12:34:48;;;;;;;;;15.50;13.50;;;;;13.12;42.17;100993.66;4978555;28;45432;-88
2023/04/20 12:37:14;;;;;;;;;16.25;16.25;;;;;13.27;41.63;101022.56;4959531;28;45407;-88
2023/04/20 12:39:40;;;;;;;;;21.25;18.00;;;;;13.27;41.53;101019.00;4961595;28;47766;-88
2023/04/20 12:42:05;;;;;;;;;16.50;16.25;;;;;13.15;42.06;100993.56;4979177;28;45687;-88
2023/04/20 12:44:31;;;;;;;;;4.00;4.00;;;;;13.32;41.75;101011.69;4980968;28;45395;-87
2023/04/20 12:46:57;;;;;;;;;17.75;16.75;;;;;13.27;42.19;100992.19;4978098;28;45429;-88
2023/04/20 12:49:23;;;;;;;;;15.00;14.75;;;;;13.40;42.01;101011.38;4968917;28;46350;-88
2023/04/20 12:51:48;;;;;;;;;18.00;16.50;;;;;13.32;42.16;101001.81;4960285;28;44838;-88
2023/04/20 12:54:13;;;;;;;;;18.75;18.75;;;;;13.22;42.19;100989.69;4979832;28;45559;-91
2023/04/20 12:56:39;;;;;;;;;18.50;18.25;;;;;13.19;42.20;100978.22;4981385;28;45444;-90
2023/04/20 12:59:04;;;;;;;;;16.75;16.75;;;;;13.12;42.29;100957.00;4962957;28;47294;-90
2023/04/20 13:01:29;;;;;;;;;16.75;16.50;;;;;13.39;42.29;101005.13;4978099;28;45765;-88
2023/04/20 13:03:55;;;;;;;;;15.50;14.25;;;;;13.26;42.34;100980.59;4974614;28;45500;-91
2023/04/20 13:06:20;;;;;;;;;20.00;17.50;;;;;13.38;42.22;100990.00;4964746;28;45582;-90
2023/04/20 13:08:46;;;;;;;;;19.75;18.50;;;;;13.44;42.05;100997.78;4961148;28;47343;-90
2023/04/20 13:11:14;;;;;;;;;20.75;17.25;;;;;13.44;42.06;101002.28;4970967;28;45396;-84
2023/04/20 13:13:39;;;;;;;;;17.00;17.00;;;;;13.39;42.57;101002.47;4980708;28;45417;-85
2023/04/20 13:16:05;;;;;;;;;18.75;18.50;;;;;13.40;42.30;100980.09;4982076;28;45449;-85
2023/04/20 13:18:32;;;;;;;;;19.75;19.75;;;;;13.42;42.36;100988.94;4980639;28;45339;-86
2023/04/20 13:20:58;;;;;;;;;19.50;19.50;;;;;13.52;42.39;101005.53;4975571;28;45463;-86
2023/04/20 13:23:23;;;;;;;;;15.00;15.00;;;;;13.47;42.32;101016.44;4981483;28;45311;-87
2023/04/20 13:25:49;;;;;;;;;20.25;19.00;;;;;13.36;42.26;100988.31;4965681;28;46874;-84
2023/04/20 13:28:14;;;;;;;;;21.75;20.75;;;;;13.24;42.32;100998.53;4982602;28;45390;-84
2023/04/20 13:30:39;;;;;;;;;20.50;19.25;;;;;13.24;42.65;100998.53;4963105;28;45455;-84
2023/04/20 13:33:05;;;;;;;;;22.75;22.75;;;;;13.05;42.84;100976.09;4965442;28;45496;-84
2023/04/20 13:35:31;;;;;;;;;20.75;17.75;;;;;13.26;43.02;101002.03;4981486;28;45382;-84
2023/04/20 13:37:57;;;;;;;;;18.50;18.50;;;;;13.10;43.01;100985.69;4965645;28;47936;-84
2023/04/20 13:40:22;;;;;;;;;23.25;19.50;;;;;13.21;42.92;101004.00;4978670;28;45503;-84
2023/04/20 13:42:48;;;;;;;;;19.50;19.50;;;;;13.18;43.05;100990.75;4982545;28;45709;-83
2023/04/20 13:45:13;;;;;;;;;18.50;18.00;;;;;13.26;42.93;101004.72;4973885;28;45350;-84
2023/04/20 13:47:39;;;;;;;;;18.00;18.00;;;;;13.09;42.97;100967.84;4971297;28;47193;-84
2023/04/20 13:50:06;;;;;;;;;16.75;16.25;;;;;13.26;43.06;100996.66;4981786;28;45422;-84
2023/04/20 13:52:31;;;;;;;;;18.75;17.75;;;;;13.14;42.90;100983.75;4981862;28;45427;-84
2023/04/20 13:54:59;;;;;;;;;23.00;20.25;;;;;13.13;43.06;100980.22;4965450;28;45682;-84
2023/04/20 13:57:25;;;;;;;;;19.50;18.75;;;;;13.05;42.75;100966.25;4982195;28;45892;-84
2023/04/20 13:59:50;;;;;;;;;24.25;18.50;;;;;13.10;42.93;100969.59;4983142;28;45563;-84
2023/04/20 14:02:16;;;;;;;;;21.50;16.75;;;;;13.01;43.18;100950.34;4977334;28;45332;-85
2023/04/20 14:04:41;;;;;;;;;24.00;20.50;;;;;13.19;43.26;100987.13;4980666;28;45347;-84
2023/04/20 14:07:09;;;;;;;;;21.00;19.25;;;;;13.10;43.44;100968.75;4983854;28;45383;-83
2023/04/20 14:09:34;;;;;;;;;18.75;17.25;;;;;13.13;43.24;100957.88;4981819;28;45641;-84
2023/04/20 14:12:02;;;;;;;;;21.25;21.00;;;;;13.16;43.10;100963.13;4971341;28;45317;-84
2023/04/20 14:14:27;;;;;;;;;17.00;15.25;;;;;13.11;43.05;100959.75;4982236;28;45545;-84
2023/04/20 14:16:52;;;;;;;;;18.50;18.00;;;;;13.20;43.08;100967.44;4983276;28;45471;-84
2023/04/20 14:19:18;;;;;;;;;19.00;18.00;;;;;13.14;43.23;100970.34;4983810;28;45458;-84
2023/04/20 14:21:45;;;;;;;;;22.50;19.25;;;;;13.23;43.20;100978.06;4965509;28;46365;-84
2023/04/20 14:24:10;;;;;;;;;21.75;19.00;;;;;13.22;43.53;100975.44;4966052;28;45471;-84
2023/04/20 14:26:36;;;;;;;;;20.00;18.75;;;;;13.23;43.42;100964.66;4980266;28;45929;-84
2023/04/20 14:29:03;;;;;;;;;18.50;18.50;;;;;13.27;43.40;100965.38;4983172;28;45263;-84
2023/04/20 14:31:29;;;;;;;;;20.50;18.00;;;;;13.30;43.60;100958.09;4960586;28;46654;-84
2023/04/20 14:33:55;;;;;;;;;17.50;16.75;;;;;13.29;43.60;100947.44;4982873;28;45339;-84
2023/04/20 14:36:20;;;;;;;;;17.00;12.50;;;;;13.26;43.70;100945.72;4956780;28;47261;-85
2023/04/20 14:38:45;;;;;;;;;18.25;15.75;;;;;13.24;43.08;100934.22;4959573;28;45233;-84
2023/04/20 14:41:11;;;;;;;;;17.00;16.75;;;;;13.39;42.80;100961.38;4978321;28;45419;-88
2023/04/20 14:43:36;;;;;;;;;17.50;16.00;;;;;13.27;42.72;100931.41;4972284;28;45355;-87
2023/04/20 14:46:04;;;;;;;;;15.75;14.75;;;;;13.40;42.93;100944.34;4951435;28;46632;-89
2023/04/20 14:48:29;;;;;;;;;21.00;18.75;;;;;13.38;42.59;100927.44;4973682;28;45231;-89
2023/04/20 14:50:55;;;;;;;;;17.50;17.50;;;;;13.41;42.72;100940.72;4964866;28;45357;-91
2023/04/20 14:53:21;;;;;;;;;16.25;15.50;;;;;13.31;42.52;100926.78;4970744;28;45600;-90